sensor_id;sensor_type;location;lat;lon;timestamp;pressure;altitude;pressure_sealevel;temperature;humidity
6829;BME280;17930;48.592;8.868;2023-07-31T00:02:27;96855.44;;;13.59;100.00
6829;BME280;17930;48.592;8.868;2023-07-31T00:04:54;96851.31;;;13.85;100.00
6829;BME280;17930;48.592;8.868;2023-07-31T00:07:20;96849.63;;;13.76;100.00
6829;BME280;17930;48.592;8.868;2023-07-31T00:09:47;96845.88;;;13.50;100.00
6829;BME280;17930;48.592;8.868;2023-07-31T00:12:14;96847.50;;;13.46;100.00
6829;BME280;17930;48.592;8.868;2023-07-31T00:14:40;96848.69;;;13.72;100.00
6829;BME280;17930;48.592;8.868;2023-07-31T00:17:07;96853.34;;;13.88;100.00
6829;BME280;17930;48.592;8.868;2023-07-31T00:19:35;96856.50;;;13.58;100.00
6829;BME280;17930;48.592;8.868;2023-07-31T00:22:02;96857.38;;;13.67;100.00
6829;BME280;17930;48.592;8.868;2023-07-31T00:24:29;96857.19;;;13.64;100.00
6829;BME280;17930;48.592;8.868;2023-07-31T00:26:55;96859.53;;;13.65;100.00
6829;BME280;17930;48.592;8.868;2023-07-31T00:29:22;96857.81;;;13.87;100.00
6829;BME280;17930;48.592;8.868;2023-07-31T00:31:49;96854.41;;;13.87;100.00
6829;BME280;17930;48.592;8.868;2023-07-31T00:34:15;96854.84;;;13.62;100.00
6829;BME280;17930;48.592;8.868;2023-07-31T00:36:43;96854.13;;;13.43;100.00
6829;BME280;17930;48.592;8.868;2023-07-31T00:39:10;96857.72;;;13.47;100.00
6829;BME280;17930;48.592;8.868;2023-07-31T00:41:36;96851.09;;;13.36;100.00
6829;BME280;17930;48.592;8.868;2023-07-31T00:44:03;96849.53;;;13.35;100.00
6829;BME280;17930;48.592;8.868;2023-07-31T00:46:30;96842.25;;;13.32;100.00
6829;BME280;17930;48.592;8.868;2023-07-31T00:48:57;96843.31;;;13.31;100.00
6829;BME280;17930;48.592;8.868;2023-07-31T00:51:24;96854.59;;;13.45;100.00
6829;BME280;17930;48.592;8.868;2023-07-31T00:53:52;96847.63;;;13.54;100.00
6829;BME280;17930;48.592;8.868;2023-07-31T00:56:21;96854.97;;;13.39;100.00
6829;BME280;17930;48.592;8.868;2023-07-31T00:58:48;96846.00;;;13.27;100.00
6829;BME280;17930;48.592;8.868;2023-07-31T01:01:15;96850.88;;;13.33;100.00
6829;BME280;17930;48.592;8.868;2023-07-31T01:03:42;96852.88;;;13.23;100.00
6829;BME280;17930;48.592;8.868;2023-07-31T01:06:15;96848.53;;;13.31;100.00
6829;BME280;17930;48.592;8.868;2023-07-31T01:08:49;96845.19;;;13.13;100.00
6829;BME280;17930;48.592;8.868;2023-07-31T01:11:27;96838.38;;;13.12;100.00
6829;BME280;17930;48.592;8.868;2023-07-31T01:13:55;96837.03;;;13.14;100.00
6829;BME280;17930;48.592;8.868;2023-07-31T01:16:21;96837.28;;;13.31;100.00
6829;BME280;17930;48.592;8.868;2023-07-31T01:18:48;96817.69;;;13.29;100.00
6829;BME280;17930;48.592;8.868;2023-07-31T01:21:23;96829.22;;;13.28;100.00
6829;BME280;17930;48.592;8.868;2023-07-31T01:24:20;96826.16;;;13.39;100.00
6829;BME280;17930;48.592;8.868;2023-07-31T01:26:53;96823.91;;;13.32;100.00
6829;BME280;17930;48.592;8.868;2023-07-31T01:29:27;96824.47;;;13.30;100.00
6829;BME280;17930;48.592;8.868;2023-07-31T01:31:56;96822.09;;;13.15;100.00
6829;BME280;17930;48.592;8.868;2023-07-31T01:34:26;96811.34;;;12.98;100.00
6829;BME280;17930;48.592;8.868;2023-07-31T01:36:53;96811.16;;;12.94;100.00
6829;BME280;17930;48.592;8.868;2023-07-31T01:39:20;96819.16;;;12.79;100.00
6829;BME280;17930;48.592;8.868;2023-07-31T01:41:46;96810.41;;;12.71;100.00
6829;BME280;17930;48.592;8.868;2023-07-31T01:44:14;96807.91;;;12.84;100.00
6829;BME280;17930;48.592;8.868;2023-07-31T01:46:41;96806.53;;;13.05;100.00
6829;BME280;17930;48.592;8.868;2023-07-31T01:49:08;96800.00;;;13.21;100.00
6829;BME280;17930;48.592;8.868;2023-07-31T01:51:34;96800.78;;;13.21;100.00
6829;BME280;17930;48.592;8.868;2023-07-31T01:54:01;96802.88;;;13.19;100.00
6829;BME280;17930;48.592;8.868;2023-07-31T01:56:28;96797.69;;;13.01;100.00
6829;BME280;17930;48.592;8.868;2023-07-31T01:58:55;96801.44;;;12.95;100.00
6829;BME280;17930;48.592;8.868;2023-07-31T02:01:23;96803.47;;;12.79;100.00
6829;BME280;17930;48.592;8.868;2023-07-31T02:03:49;96806.09;;;12.61;100.00
6829;BME280;17930;48.592;8.868;2023-07-31T02:06:16;96805.72;;;12.49;100.00
6829;BME280;17930;48.592;8.868;2023-07-31T02:08:43;96803.72;;;12.41;100.00
6829;BME280;17930;48.592;8.868;2023-07-31T02:11:10;96797.84;;;12.54;100.00
6829;BME280;17930;48.592;8.868;2023-07-31T02:13:36;96785.84;;;12.48;100.00
6829;BME280;17930;48.592;8.868;2023-07-31T02:16:03;96784.88;;;12.44;100.00
6829;BME280;17930;48.592;8.868;2023-07-31T02:18:31;96793.97;;;12.28;100.00
6829;BME280;17930;48.592;8.868;2023-07-31T02:20:58;96778.84;;;12.26;100.00
6829;BME280;17930;48.592;8.868;2023-07-31T02:23:25;96779.13;;;12.42;100.00
6829;BME280;17930;48.592;8.868;2023-07-31T02:25:51;96780.31;;;12.31;100.00
6829;BME280;17930;48.592;8.868;2023-07-31T02:28:18;96779.34;;;12.27;100.00
6829;BME280;17930;48.592;8.868;2023-07-31T02:30:45;96777.19;;;12.11;100.00
6829;BME280;17930;48.592;8.868;2023-07-31T02:33:11;96776.47;;;12.06;100.00
6829;BME280;17930;48.592;8.868;2023-07-31T02:35:39;96778.59;;;12.04;100.00
6829;BME280;17930;48.592;8.868;2023-07-31T02:38:06;96774.44;;;12.21;100.00
6829;BME280;17930;48.592;8.868;2023-07-31T02:40:33;96773.97;;;12.19;100.00
6829;BME280;17930;48.592;8.868;2023-07-31T02:42:59;96773.84;;;12.06;100.00
6829;BME280;17930;48.592;8.868;2023-07-31T02:45:26;96777.69;;;12.13;100.00
6829;BME280;17930;48.592;8.868;2023-07-31T02:47:53;96763.09;;;12.30;100.00
6829;BME280;17930;48.592;8.868;2023-07-31T02:50:19;96757.34;;;12.28;100.00
6829;BME280;17930;48.592;8.868;2023-07-31T02:52:47;96756.00;;;12.31;100.00
6829;BME280;17930;48.592;8.868;2023-07-31T02:55:14;96757.31;;;12.33;100.00
6829;BME280;17930;48.592;8.868;2023-07-31T02:57:40;96747.84;;;12.37;100.00
6829;BME280;17930;48.592;8.868;2023-07-31T03:00:07;96752.78;;;12.57;100.00
6829;BME280;17930;48.592;8.868;2023-07-31T03:02:34;96750.31;;;12.66;100.00
6829;BME280;17930;48.592;8.868;2023-07-31T03:05:01;96752.06;;;12.70;100.00
6829;BME280;17930;48.592;8.868;2023-07-31T03:07:28;96754.84;;;12.60;100.00
6829;BME280;17930;48.592;8.868;2023-07-31T03:09:56;96757.94;;;12.44;100.00
6829;BME280;17930;48.592;8.868;2023-07-31T03:12:23;96757.50;;;12.37;100.00
6829;BME280;17930;48.592;8.868;2023-07-31T03:14:50;96750.78;;;12.49;100.00
6829;BME280;17930;48.592;8.868;2023-07-31T03:17:16;96751.69;;;12.58;100.00
6829;BME280;17930;48.592;8.868;2023-07-31T03:19:43;96744.56;;;12.45;100.00
6829;BME280;17930;48.592;8.868;2023-07-31T03:22:10;96751.50;;;12.36;100.00
6829;BME280;17930;48.592;8.868;2023-07-31T03:24:36;96754.81;;;12.24;100.00
6829;BME280;17930;48.592;8.868;2023-07-31T03:27:05;96757.00;;;12.17;100.00
6829;BME280;17930;48.592;8.868;2023-07-31T03:29:32;96750.59;;;12.27;100.00
6829;BME280;17930;48.592;8.868;2023-07-31T03:31:58;96757.16;;;12.43;100.00
6829;BME280;17930;48.592;8.868;2023-07-31T03:34:26;96758.00;;;12.57;100.00
6829;BME280;17930;48.592;8.868;2023-07-31T03:36:52;96750.75;;;12.54;100.00
6829;BME280;17930;48.592;8.868;2023-07-31T03:39:19;96748.38;;;12.71;100.00
6829;BME280;17930;48.592;8.868;2023-07-31T03:41:46;96752.66;;;12.85;100.00
6829;BME280;17930;48.592;8.868;2023-07-31T03:44:14;96760.25;;;12.82;100.00
6829;BME280;17930;48.592;8.868;2023-07-31T03:46:40;96760.53;;;12.62;100.00
6829;BME280;17930;48.592;8.868;2023-07-31T03:49:07;96749.09;;;12.58;100.00
6829;BME280;17930;48.592;8.868;2023-07-31T03:51:34;96752.41;;;12.64;100.00
6829;BME280;17930;48.592;8.868;2023-07-31T03:54:00;96755.88;;;12.59;100.00
6829;BME280;17930;48.592;8.868;2023-07-31T03:56:27;96749.16;;;12.72;100.00
6829;BME280;17930;48.592;8.868;2023-07-31T03:58:54;96738.75;;;12.85;100.00
6829;BME280;17930;48.592;8.868;2023-07-31T04:01:21;96740.81;;;12.88;100.00
6829;BME280;17930;48.592;8.868;2023-07-31T04:03:48;96739.81;;;13.02;100.00
6829;BME280;17930;48.592;8.868;2023-07-31T04:06:15;96743.50;;;13.15;100.00
6829;BME280;17930;48.592;8.868;2023-07-31T04:08:43;96734.06;;;13.32;100.00
6829;BME280;17930;48.592;8.868;2023-07-31T04:11:10;96735.59;;;13.33;100.00
6829;BME280;17930;48.592;8.868;2023-07-31T04:13:36;96740.56;;;13.34;100.00
6829;BME280;17930;48.592;8.868;2023-07-31T04:16:03;96743.41;;;13.51;100.00
6829;BME280;17930;48.592;8.868;2023-07-31T04:18:31;96733.09;;;13.41;100.00
6829;BME280;17930;48.592;8.868;2023-07-31T04:20:58;96733.66;;;13.38;100.00
6829;BME280;17930;48.592;8.868;2023-07-31T04:23:26;96727.84;;;13.41;100.00
6829;BME280;17930;48.592;8.868;2023-07-31T04:25:53;96736.88;;;13.49;100.00
6829;BME280;17930;48.592;8.868;2023-07-31T04:28:20;96736.44;;;13.60;100.00
6829;BME280;17930;48.592;8.868;2023-07-31T04:30:47;96742.03;;;13.94;100.00
6829;BME280;17930;48.592;8.868;2023-07-31T04:33:13;96737.91;;;14.06;100.00
6829;BME280;17930;48.592;8.868;2023-07-31T04:35:42;96744.59;;;13.99;100.00
6829;BME280;17930;48.592;8.868;2023-07-31T04:38:17;96736.78;;;13.94;100.00
6829;BME280;17930;48.592;8.868;2023-07-31T04:40:44;96737.38;;;13.91;100.00
6829;BME280;17930;48.592;8.868;2023-07-31T04:43:10;96734.84;;;13.99;100.00
6829;BME280;17930;48.592;8.868;2023-07-31T04:45:37;96729.81;;;14.30;100.00
6829;BME280;17930;48.592;8.868;2023-07-31T04:48:04;96731.34;;;14.31;100.00
6829;BME280;17930;48.592;8.868;2023-07-31T04:50:30;96729.00;;;14.29;100.00
6829;BME280;17930;48.592;8.868;2023-07-31T04:52:58;96734.69;;;14.23;100.00
6829;BME280;17930;48.592;8.868;2023-07-31T04:55:25;96721.25;;;14.24;100.00
6829;BME280;17930;48.592;8.868;2023-07-31T04:57:52;96728.38;;;14.10;100.00
6829;BME280;17930;48.592;8.868;2023-07-31T05:00:18;96739.53;;;13.89;100.00
6829;BME280;17930;48.592;8.868;2023-07-31T05:02:45;96742.53;;;13.96;100.00
6829;BME280;17930;48.592;8.868;2023-07-31T05:05:12;96741.84;;;14.04;100.00
6829;BME280;17930;48.592;8.868;2023-07-31T05:07:39;96739.53;;;14.16;100.00
6829;BME280;17930;48.592;8.868;2023-07-31T05:10:07;96739.22;;;14.31;100.00
6829;BME280;17930;48.592;8.868;2023-07-31T05:12:34;96727.34;;;14.68;100.00
6829;BME280;17930;48.592;8.868;2023-07-31T05:15:01;96725.56;;;14.77;100.00
6829;BME280;17930;48.592;8.868;2023-07-31T05:17:27;96722.56;;;15.14;100.00
6829;BME280;17930;48.592;8.868;2023-07-31T05:19:54;96722.44;;;15.40;100.00
6829;BME280;17930;48.592;8.868;2023-07-31T05:22:20;96720.03;;;15.52;100.00
6829;BME280;17930;48.592;8.868;2023-07-31T05:24:47;96721.53;;;15.75;100.00
6829;BME280;17930;48.592;8.868;2023-07-31T05:27:15;96738.00;;;16.06;100.00
6829;BME280;17930;48.592;8.868;2023-07-31T05:29:43;96740.34;;;16.16;100.00
6829;BME280;17930;48.592;8.868;2023-07-31T05:32:10;96736.88;;;16.29;100.00
6829;BME280;17930;48.592;8.868;2023-07-31T05:34:37;96739.66;;;16.32;100.00
6829;BME280;17930;48.592;8.868;2023-07-31T05:37:04;96732.53;;;16.49;100.00
6829;BME280;17930;48.592;8.868;2023-07-31T05:39:31;96737.19;;;16.69;100.00
6829;BME280;17930;48.592;8.868;2023-07-31T05:41:58;96733.94;;;16.81;100.00
6829;BME280;17930;48.592;8.868;2023-07-31T05:44:25;96742.00;;;16.92;100.00
6829;BME280;17930;48.592;8.868;2023-07-31T05:46:52;96744.63;;;16.67;100.00
6829;BME280;17930;48.592;8.868;2023-07-31T05:49:19;96741.25;;;16.58;100.00
6829;BME280;17930;48.592;8.868;2023-07-31T05:51:46;96749.13;;;16.50;100.00
6829;BME280;17930;48.592;8.868;2023-07-31T05:54:12;96738.09;;;16.40;100.00
6829;BME280;17930;48.592;8.868;2023-07-31T05:56:39;96736.09;;;16.45;100.00
6829;BME280;17930;48.592;8.868;2023-07-31T05:59:08;96728.34;;;16.40;100.00
6829;BME280;17930;48.592;8.868;2023-07-31T06:01:36;96735.03;;;16.46;100.00
6829;BME280;17930;48.592;8.868;2023-07-31T06:04:03;96726.19;;;16.42;100.00
6829;BME280;17930;48.592;8.868;2023-07-31T06:06:30;96719.84;;;16.35;100.00
6829;BME280;17930;48.592;8.868;2023-07-31T06:08:57;96724.78;;;16.28;100.00
6829;BME280;17930;48.592;8.868;2023-07-31T06:11:23;96719.03;;;16.34;100.00
6829;BME280;17930;48.592;8.868;2023-07-31T06:13:50;96716.91;;;16.44;100.00
6829;BME280;17930;48.592;8.868;2023-07-31T06:16:17;96718.59;;;16.49;100.00
6829;BME280;17930;48.592;8.868;2023-07-31T06:18:45;96713.03;;;16.84;100.00
6829;BME280;17930;48.592;8.868;2023-07-31T06:21:11;96713.53;;;17.48;100.00
6829;BME280;17930;48.592;8.868;2023-07-31T06:23:38;96710.66;;;17.99;100.00
6829;BME280;17930;48.592;8.868;2023-07-31T06:26:05;96714.69;;;18.34;100.00
6829;BME280;17930;48.592;8.868;2023-07-31T06:28:32;96716.44;;;18.70;100.00
6829;BME280;17930;48.592;8.868;2023-07-31T06:30:59;96718.44;;;19.26;100.00
6829;BME280;17930;48.592;8.868;2023-07-31T06:33:26;96726.44;;;19.50;100.00
6829;BME280;17930;48.592;8.868;2023-07-31T06:35:54;96717.63;;;19.57;100.00
6829;BME280;17930;48.592;8.868;2023-07-31T06:38:23;96722.00;;;19.42;100.00
6829;BME280;17930;48.592;8.868;2023-07-31T06:40:50;96714.91;;;19.22;100.00
6829;BME280;17930;48.592;8.868;2023-07-31T06:43:17;96723.31;;;19.24;100.00
6829;BME280;17930;48.592;8.868;2023-07-31T06:45:44;96725.41;;;19.30;100.00
6829;BME280;17930;48.592;8.868;2023-07-31T06:48:11;96733.75;;;19.20;100.00
6829;BME280;17930;48.592;8.868;2023-07-31T06:50:37;96735.63;;;19.20;100.00
6829;BME280;17930;48.592;8.868;2023-07-31T06:53:05;96735.31;;;19.21;100.00
6829;BME280;17930;48.592;8.868;2023-07-31T06:55:32;96743.75;;;19.47;100.00
6829;BME280;17930;48.592;8.868;2023-07-31T06:57:59;96750.19;;;19.26;100.00
6829;BME280;17930;48.592;8.868;2023-07-31T07:00:27;96743.03;;;19.26;100.00
6829;BME280;17930;48.592;8.868;2023-07-31T07:02:54;96743.75;;;19.15;100.00
6829;BME280;17930;48.592;8.868;2023-07-31T07:05:20;96738.94;;;19.17;100.00
6829;BME280;17930;48.592;8.868;2023-07-31T07:07:49;96739.03;;;19.20;100.00
6829;BME280;17930;48.592;8.868;2023-07-31T07:10:17;96738.34;;;19.44;100.00
6829;BME280;17930;48.592;8.868;2023-07-31T07:12:44;96738.34;;;19.88;100.00
6829;BME280;17930;48.592;8.868;2023-07-31T07:15:11;96738.66;;;19.98;100.00
6829;BME280;17930;48.592;8.868;2023-07-31T07:17:37;96738.22;;;20.08;100.00
6829;BME280;17930;48.592;8.868;2023-07-31T07:20:05;96725.63;;;20.05;100.00
6829;BME280;17930;48.592;8.868;2023-07-31T07:22:32;96728.28;;;20.05;100.00
6829;BME280;17930;48.592;8.868;2023-07-31T07:24:58;96725.03;;;20.47;100.00
6829;BME280;17930;48.592;8.868;2023-07-31T07:27:26;96727.25;;;20.45;100.00
6829;BME280;17930;48.592;8.868;2023-07-31T07:29:53;96726.50;;;20.21;100.00
6829;BME280;17930;48.592;8.868;2023-07-31T07:32:20;96714.63;;;20.03;100.00
6829;BME280;17930;48.592;8.868;2023-07-31T07:34:47;96714.25;;;20.28;100.00
6829;BME280;17930;48.592;8.868;2023-07-31T07:37:14;96712.53;;;20.59;100.00
6829;BME280;17930;48.592;8.868;2023-07-31T07:39:41;96710.78;;;20.52;100.00
6829;BME280;17930;48.592;8.868;2023-07-31T07:42:08;96719.38;;;21.27;100.00
6829;BME280;17930;48.592;8.868;2023-07-31T07:44:36;96718.69;;;21.72;100.00
6829;BME280;17930;48.592;8.868;2023-07-31T07:47:03;96711.16;;;21.05;100.00
6829;BME280;17930;48.592;8.868;2023-07-31T07:49:31;96720.41;;;20.44;100.00
6829;BME280;17930;48.592;8.868;2023-07-31T07:51:58;96707.72;;;21.59;100.00
6829;BME280;17930;48.592;8.868;2023-07-31T07:54:24;96710.28;;;22.01;100.00
6829;BME280;17930;48.592;8.868;2023-07-31T07:56:51;96705.81;;;22.05;100.00
6829;BME280;17930;48.592;8.868;2023-07-31T07:59:18;96705.06;;;22.39;100.00
6829;BME280;17930;48.592;8.868;2023-07-31T08:01:46;96685.50;;;23.00;100.00
6829;BME280;17930;48.592;8.868;2023-07-31T08:04:12;96694.44;;;23.74;100.00
6829;BME280;17930;48.592;8.868;2023-07-31T08:06:39;96682.09;;;24.36;100.00
6829;BME280;17930;48.592;8.868;2023-07-31T08:09:06;96684.22;;;24.82;100.00
6829;BME280;17930;48.592;8.868;2023-07-31T08:11:34;96687.38;;;24.07;100.00
6829;BME280;17930;48.592;8.868;2023-07-31T08:14:01;96687.66;;;24.02;100.00
6829;BME280;17930;48.592;8.868;2023-07-31T08:16:28;96674.78;;;25.21;100.00
6829;BME280;17930;48.592;8.868;2023-07-31T08:18:56;96673.06;;;25.82;100.00
6829;BME280;17930;48.592;8.868;2023-07-31T08:21:23;96681.41;;;26.24;100.00
6829;BME280;17930;48.592;8.868;2023-07-31T08:23:49;96672.31;;;27.09;100.00
6829;BME280;17930;48.592;8.868;2023-07-31T08:26:16;96666.44;;;26.80;98.18
6829;BME280;17930;48.592;8.868;2023-07-31T08:28:43;96665.22;;;25.60;100.00
6829;BME280;17930;48.592;8.868;2023-07-31T08:31:10;96667.31;;;25.37;100.00
6829;BME280;17930;48.592;8.868;2023-07-31T08:33:37;96673.44;;;25.80;100.00
6829;BME280;17930;48.592;8.868;2023-07-31T08:36:05;96671.81;;;24.64;100.00
6829;BME280;17930;48.592;8.868;2023-07-31T08:38:32;96679.13;;;24.41;100.00
6829;BME280;17930;48.592;8.868;2023-07-31T08:40:59;96681.72;;;24.12;100.00
6829;BME280;17930;48.592;8.868;2023-07-31T08:43:26;96676.38;;;23.86;100.00
6829;BME280;17930;48.592;8.868;2023-07-31T08:45:54;96668.16;;;22.90;100.00
6829;BME280;17930;48.592;8.868;2023-07-31T08:48:21;96680.78;;;22.74;100.00
6829;BME280;17930;48.592;8.868;2023-07-31T08:50:49;96671.09;;;22.66;100.00
6829;BME280;17930;48.592;8.868;2023-07-31T08:53:17;96688.44;;;22.42;100.00
6829;BME280;17930;48.592;8.868;2023-07-31T08:55:44;96677.06;;;23.17;100.00
6829;BME280;17930;48.592;8.868;2023-07-31T08:58:12;96670.16;;;23.57;100.00
6829;BME280;17930;48.592;8.868;2023-07-31T09:00:40;96667.19;;;23.62;100.00
6829;BME280;17930;48.592;8.868;2023-07-31T09:03:11;96658.69;;;23.75;100.00
6829;BME280;17930;48.592;8.868;2023-07-31T09:05:42;96653.38;;;24.01;100.00
6829;BME280;17930;48.592;8.868;2023-07-31T09:08:09;96647.31;;;23.56;100.00
6829;BME280;17930;48.592;8.868;2023-07-31T09:10:41;96646.19;;;23.79;100.00
6829;BME280;17930;48.592;8.868;2023-07-31T09:13:08;96647.19;;;23.49;100.00
6829;BME280;17930;48.592;8.868;2023-07-31T09:15:36;96644.13;;;23.47;100.00
6829;BME280;17930;48.592;8.868;2023-07-31T09:18:03;96639.47;;;22.99;100.00
6829;BME280;17930;48.592;8.868;2023-07-31T09:20:31;96633.09;;;23.26;100.00
6829;BME280;17930;48.592;8.868;2023-07-31T09:23:05;96631.19;;;23.49;100.00
6829;BME280;17930;48.592;8.868;2023-07-31T09:25:33;96645.66;;;23.48;100.00
6829;BME280;17930;48.592;8.868;2023-07-31T09:28:02;96651.00;;;23.48;100.00
6829;BME280;17930;48.592;8.868;2023-07-31T09:30:29;96639.56;;;23.70;100.00
6829;BME280;17930;48.592;8.868;2023-07-31T09:33:01;96634.88;;;23.41;100.00
6829;BME280;17930;48.592;8.868;2023-07-31T09:35:29;96640.78;;;22.90;100.00
6829;BME280;17930;48.592;8.868;2023-07-31T09:37:58;96633.81;;;22.63;100.00
6829;BME280;17930;48.592;8.868;2023-07-31T09:40:26;96618.75;;;22.70;100.00
6829;BME280;17930;48.592;8.868;2023-07-31T09:42:54;96608.16;;;22.74;100.00
6829;BME280;17930;48.592;8.868;2023-07-31T09:45:23;96621.41;;;22.52;100.00
6829;BME280;17930;48.592;8.868;2023-07-31T09:47:50;96614.75;;;22.42;100.00
6829;BME280;17930;48.592;8.868;2023-07-31T09:50:19;96602.41;;;23.10;100.00
6829;BME280;17930;48.592;8.868;2023-07-31T09:52:46;96605.63;;;23.22;100.00
6829;BME280;17930;48.592;8.868;2023-07-31T09:55:13;96594.88;;;24.73;100.00
6829;BME280;17930;48.592;8.868;2023-07-31T09:57:41;96593.88;;;25.21;100.00
6829;BME280;17930;48.592;8.868;2023-07-31T10:00:09;96593.38;;;26.01;100.00
6829;BME280;17930;48.592;8.868;2023-07-31T10:02:38;96574.88;;;26.46;95.51
6829;BME280;17930;48.592;8.868;2023-07-31T10:05:06;96573.47;;;25.99;98.35
6829;BME280;17930;48.592;8.868;2023-07-31T10:07:36;96560.56;;;27.24;89.54
6829;BME280;17930;48.592;8.868;2023-07-31T10:10:04;96562.84;;;27.32;86.01
6829;BME280;17930;48.592;8.868;2023-07-31T10:12:32;96562.06;;;27.14;85.31
6829;BME280;17930;48.592;8.868;2023-07-31T10:15:00;96548.94;;;28.27;84.44
6829;BME280;17930;48.592;8.868;2023-07-31T10:17:29;96559.81;;;27.58;81.21
6829;BME280;17930;48.592;8.868;2023-07-31T10:19:57;96560.53;;;27.51;81.69
6829;BME280;17930;48.592;8.868;2023-07-31T10:22:25;96550.53;;;27.93;80.43
6829;BME280;17930;48.592;8.868;2023-07-31T10:24:54;96552.84;;;27.91;82.07
6829;BME280;17930;48.592;8.868;2023-07-31T10:27:22;96558.63;;;27.45;79.49
6829;BME280;17930;48.592;8.868;2023-07-31T10:29:50;96551.72;;;27.82;80.81
6829;BME280;17930;48.592;8.868;2023-07-31T10:32:19;96549.00;;;28.03;78.35
6829;BME280;17930;48.592;8.868;2023-07-31T10:34:48;96554.00;;;26.97;80.95
6829;BME280;17930;48.592;8.868;2023-07-31T10:37:28;96565.69;;;26.44;86.19
6829;BME280;17930;48.592;8.868;2023-07-31T10:40:00;96552.69;;;26.42;90.31
6829;BME280;17930;48.592;8.868;2023-07-31T10:42:30;96541.38;;;26.97;85.57
6829;BME280;17930;48.592;8.868;2023-07-31T10:44:58;96542.94;;;27.50;82.74
6829;BME280;17930;48.592;8.868;2023-07-31T10:47:25;96529.53;;;27.05;84.67
6829;BME280;17930;48.592;8.868;2023-07-31T10:49:52;96530.44;;;28.43;81.01
6829;BME280;17930;48.592;8.868;2023-07-31T10:52:20;96528.38;;;27.62;78.56
6829;BME280;17930;48.592;8.868;2023-07-31T10:54:50;96520.75;;;27.53;79.42
6829;BME280;17930;48.592;8.868;2023-07-31T10:57:37;96514.59;;;27.63;79.86
6829;BME280;17930;48.592;8.868;2023-07-31T11:00:18;96507.97;;;28.88;78.69
6829;BME280;17930;48.592;8.868;2023-07-31T11:02:56;96500.38;;;29.70;72.87
6829;BME280;17930;48.592;8.868;2023-07-31T11:05:40;96498.38;;;29.37;74.66
6829;BME280;17930;48.592;8.868;2023-07-31T11:08:12;96504.34;;;28.47;75.86
6829;BME280;17930;48.592;8.868;2023-07-31T11:10:40;96520.19;;;26.44;82.04
6829;BME280;17930;48.592;8.868;2023-07-31T11:13:07;96528.28;;;25.23;91.50
6829;BME280;17930;48.592;8.868;2023-07-31T11:15:34;96532.91;;;24.90;94.79
6829;BME280;17930;48.592;8.868;2023-07-31T11:18:00;96529.09;;;24.55;99.18
6829;BME280;17930;48.592;8.868;2023-07-31T11:20:29;96536.63;;;24.46;100.00
6829;BME280;17930;48.592;8.868;2023-07-31T11:22:58;96537.53;;;24.57;100.00
6829;BME280;17930;48.592;8.868;2023-07-31T11:25:25;96539.03;;;24.54;100.00
6829;BME280;17930;48.592;8.868;2023-07-31T11:27:53;96541.94;;;23.84;100.00
6829;BME280;17930;48.592;8.868;2023-07-31T11:30:22;96533.28;;;23.65;100.00
6829;BME280;17930;48.592;8.868;2023-07-31T11:32:48;96534.88;;;23.98;100.00
6829;BME280;17930;48.592;8.868;2023-07-31T11:35:15;96532.97;;;23.70;100.00
6829;BME280;17930;48.592;8.868;2023-07-31T11:37:43;96545.78;;;23.86;100.00
6829;BME280;17930;48.592;8.868;2023-07-31T11:40:10;96546.00;;;24.04;100.00
6829;BME280;17930;48.592;8.868;2023-07-31T11:42:37;96542.44;;;23.93;100.00
6829;BME280;17930;48.592;8.868;2023-07-31T11:45:07;96536.66;;;23.87;100.00
6829;BME280;17930;48.592;8.868;2023-07-31T11:47:37;96531.63;;;23.82;100.00
6829;BME280;17930;48.592;8.868;2023-07-31T11:50:06;96519.53;;;23.63;100.00
6829;BME280;17930;48.592;8.868;2023-07-31T11:52:38;96525.78;;;23.48;100.00
6829;BME280;17930;48.592;8.868;2023-07-31T11:55:08;96504.25;;;23.60;100.00
6829;BME280;17930;48.592;8.868;2023-07-31T11:57:39;96498.16;;;23.08;100.00
6829;BME280;17930;48.592;8.868;2023-07-31T12:00:09;96499.97;;;22.81;100.00
6829;BME280;17930;48.592;8.868;2023-07-31T12:02:38;96496.91;;;22.38;100.00
6829;BME280;17930;48.592;8.868;2023-07-31T12:05:06;96499.78;;;22.30;100.00
6829;BME280;17930;48.592;8.868;2023-07-31T12:07:47;96507.97;;;22.03;100.00
6829;BME280;17930;48.592;8.868;2023-07-31T12:10:25;96500.25;;;22.76;100.00
6829;BME280;17930;48.592;8.868;2023-07-31T12:13:02;96488.97;;;23.05;100.00
6829;BME280;17930;48.592;8.868;2023-07-31T12:15:32;96486.75;;;23.07;100.00
6829;BME280;17930;48.592;8.868;2023-07-31T12:18:00;96485.38;;;23.17;100.00
6829;BME280;17930;48.592;8.868;2023-07-31T12:20:26;96475.56;;;23.75;100.00
6829;BME280;17930;48.592;8.868;2023-07-31T12:22:56;96472.38;;;25.04;100.00
6829;BME280;17930;48.592;8.868;2023-07-31T12:25:22;96465.56;;;26.86;100.00
6829;BME280;17930;48.592;8.868;2023-07-31T12:27:50;96453.28;;;27.69;100.00
6829;BME280;17930;48.592;8.868;2023-07-31T12:30:27;96447.72;;;28.24;100.00
6829;BME280;17930;48.592;8.868;2023-07-31T12:33:03;96443.69;;;28.53;95.93
6829;BME280;17930;48.592;8.868;2023-07-31T12:35:35;96445.00;;;28.89;92.57
6829;BME280;17930;48.592;8.868;2023-07-31T12:38:03;96434.41;;;29.55;88.32
6829;BME280;17930;48.592;8.868;2023-07-31T12:40:29;96428.81;;;30.65;80.61
6829;BME280;17930;48.592;8.868;2023-07-31T12:42:56;96425.72;;;29.44;78.85
6829;BME280;17930;48.592;8.868;2023-07-31T12:45:23;96423.97;;;28.09;86.06
6829;BME280;17930;48.592;8.868;2023-07-31T12:47:50;96418.59;;;28.77;87.16
6829;BME280;17930;48.592;8.868;2023-07-31T12:50:18;96416.63;;;29.31;83.63
6829;BME280;17930;48.592;8.868;2023-07-31T12:52:45;96408.91;;;28.90;85.36
6829;BME280;17930;48.592;8.868;2023-07-31T12:55:12;96412.16;;;28.64;86.32
6829;BME280;17930;48.592;8.868;2023-07-31T12:57:42;96392.78;;;28.93;83.43
6829;BME280;17930;48.592;8.868;2023-07-31T13:00:10;96394.97;;;27.80;85.36
6829;BME280;17930;48.592;8.868;2023-07-31T13:02:38;96390.00;;;27.82;88.44
6829;BME280;17930;48.592;8.868;2023-07-31T13:05:05;96401.25;;;27.42;91.04
6829;BME280;17930;48.592;8.868;2023-07-31T13:07:33;96389.38;;;26.22;97.72